createdAt,value
2023-03-07T00:02:05.641Z,15.57
2023-03-07T00:04:36.346Z,18.67
2023-03-07T00:07:06.463Z,20.80
2023-03-07T00:09:37.198Z,25.67
2023-03-07T00:12:07.938Z,14.43
2023-03-07T00:14:38.938Z,18.60
2023-03-07T00:17:09.462Z,17.73
2023-03-07T00:19:44.856Z,14.73
2023-03-07T00:22:15.147Z,15.47
2023-03-07T00:24:47.979Z,16.00
2023-03-07T00:27:22.840Z,14.23
2023-03-07T00:29:53.963Z,15.30
2023-03-07T00:32:24.744Z,15.20
2023-03-07T00:34:56.574Z,14.37
2023-03-07T00:37:27.061Z,15.67
2023-03-07T00:39:58.094Z,12.83
2023-03-07T00:42:29.090Z,16.77
2023-03-07T00:45:01.835Z,14.50
2023-03-07T00:47:32.260Z,15.63
2023-03-07T00:50:03.567Z,15.03
2023-03-07T00:52:39.508Z,11.83
2023-03-07T00:55:10.234Z,15.20
2023-03-07T00:57:40.285Z,17.60
2023-03-07T01:00:11.632Z,13.83
2023-03-07T01:02:42.232Z,18.07
2023-03-07T01:05:12.593Z,15.07
2023-03-07T01:07:42.725Z,15.27
2023-03-07T01:10:17.918Z,20.60
2023-03-07T01:12:48.243Z,17.30
2023-03-07T01:15:19.565Z,16.07
2023-03-07T01:17:50.316Z,18.17
2023-03-07T01:20:20.906Z,16.23
2023-03-07T01:22:51.600Z,16.20
2023-03-07T01:25:22.355Z,14.60
2023-03-07T01:27:56.096Z,17.60
2023-03-07T01:30:26.827Z,17.13
2023-03-07T01:32:58.347Z,20.93
2023-03-07T01:35:37.172Z,19.60
2023-03-07T01:38:08.483Z,16.73
2023-03-07T01:40:39.512Z,20.40
2023-03-07T01:43:25.861Z,20.53
2023-03-07T01:46:18.849Z,16.77
2023-03-07T01:48:55.228Z,14.97
2023-03-07T01:51:26.834Z,16.70
2023-03-07T01:53:58.238Z,15.57
2023-03-07T01:56:34.268Z,19.53
2023-03-07T01:59:06.282Z,19.47
2023-03-07T02:01:37.462Z,18.80
2023-03-07T02:04:20.966Z,18.37
2023-03-07T02:06:51.381Z,20.07
2023-03-07T02:09:22.657Z,20.13
2023-03-07T02:11:56.817Z,17.40
2023-03-07T02:14:27.732Z,19.13
2023-03-07T02:16:58.106Z,17.37
2023-03-07T02:19:36.971Z,21.40
2023-03-07T02:22:14.020Z,17.10
2023-03-07T02:24:51.110Z,21.43
2023-03-07T02:27:26.350Z,20.97
2023-03-07T02:29:56.949Z,16.60
2023-03-07T02:32:27.551Z,19.63
2023-03-07T02:35:01.514Z,28.20
2023-03-07T02:37:34.239Z,18.30
2023-03-07T02:40:07.876Z,22.67
2023-03-07T02:42:42.128Z,19.17
2023-03-07T02:45:15.994Z,20.47
2023-03-07T02:47:46.370Z,20.73
2023-03-07T02:50:21.682Z,19.77
2023-03-07T02:52:52.109Z,20.67
2023-03-07T02:55:22.632Z,18.60
2023-03-07T02:57:53.334Z,22.37
2023-03-07T03:00:24.136Z,17.03
2023-03-07T03:03:04.141Z,21.00
2023-03-07T03:05:34.827Z,17.07
2023-03-07T03:08:05.641Z,16.87
2023-03-07T03:10:36.306Z,18.40
2023-03-07T03:13:07.060Z,18.53
2023-03-07T03:15:40.780Z,17.37
2023-03-07T03:18:11.428Z,17.50
2023-03-07T03:20:42.427Z,16.67
2023-03-07T03:23:18.279Z,14.97
2023-03-07T03:26:10.602Z,19.07
2023-03-07T03:28:41.285Z,16.97
2023-03-07T03:31:15.584Z,14.50
2023-03-07T03:33:48.638Z,16.30
2023-03-07T03:36:19.808Z,17.83
2023-03-07T03:38:57.973Z,15.33
2023-03-07T03:41:28.801Z,14.00
2023-03-07T03:43:59.523Z,16.33
2023-03-07T03:46:30.416Z,13.83
2023-03-07T03:49:01.252Z,15.70
2023-03-07T03:51:31.901Z,13.90
2023-03-07T03:54:05.975Z,14.47
2023-03-07T03:56:36.379Z,14.13
2023-03-07T03:59:07.065Z,15.90
2023-03-07T04:01:37.837Z,12.97
2023-03-07T04:04:09.298Z,15.30
2023-03-07T04:06:39.985Z,14.67
2023-03-07T04:09:10.100Z,12.40
2023-03-07T04:11:43.919Z,11.70
2023-03-07T04:14:14.280Z,16.63
2023-03-07T04:16:46.334Z,12.43
2023-03-07T04:19:22.219Z,12.73
2023-03-07T04:21:52.548Z,11.27
2023-03-07T04:24:22.798Z,10.80
2023-03-07T04:26:53.262Z,11.20
2023-03-07T04:29:24.036Z,9.10
2023-03-07T04:31:54.776Z,9.90
2023-03-07T04:34:25.260Z,8.70
2023-03-07T04:37:00.174Z,8.70
2023-03-07T04:39:30.849Z,7.80
2023-03-07T04:42:01.543Z,8.87
2023-03-07T04:44:36.729Z,10.70
2023-03-07T04:47:07.933Z,7.80
2023-03-07T04:49:39.118Z,7.83
2023-03-07T04:52:09.486Z,7.33
2023-03-07T04:54:40.270Z,8.63
2023-03-07T04:57:11.444Z,8.80
2023-03-07T04:59:42.036Z,8.20
2023-03-07T05:02:16.175Z,8.07
2023-03-07T05:04:46.674Z,7.30
2023-03-07T05:07:17.164Z,7.83
2023-03-07T05:09:52.452Z,5.93
2023-03-07T05:12:23.608Z,7.33
2023-03-07T05:14:54.157Z,7.47
2023-03-07T05:17:24.614Z,7.83
2023-03-07T05:19:55.307Z,6.17
2023-03-07T05:22:25.886Z,6.90
2023-03-07T05:24:57.743Z,6.90
2023-03-07T05:27:31.068Z,8.20
2023-03-07T05:30:01.858Z,6.50
2023-03-07T05:32:32.552Z,5.73
2023-03-07T05:35:03.249Z,6.70
2023-03-07T05:37:34.174Z,5.90
2023-03-07T05:40:09.190Z,6.13
2023-03-07T05:42:40.243Z,5.90
2023-03-07T05:45:11.509Z,6.07
2023-03-07T05:47:42.401Z,5.53
2023-03-07T05:50:13.491Z,5.30
2023-03-07T05:52:47.707Z,6.27
2023-03-07T05:55:18.489Z,7.07
2023-03-07T05:57:49.559Z,5.90
2023-03-07T06:00:23.002Z,6.20
2023-03-07T06:02:54.483Z,6.93
2023-03-07T06:05:25.586Z,6.00
2023-03-07T06:07:56.042Z,6.33
2023-03-07T06:10:27.191Z,5.83
2023-03-07T06:12:57.565Z,5.93
2023-03-07T06:15:28.441Z,5.73
2023-03-07T06:18:05.930Z,5.63
2023-03-07T06:20:36.512Z,5.13
2023-03-07T06:23:07.257Z,6.43
2023-03-07T06:25:38.141Z,6.17
2023-03-07T06:28:08.847Z,6.03
2023-03-07T06:30:39.308Z,6.20
2023-03-07T06:33:09.523Z,6.60
2023-03-07T06:35:44.230Z,6.73
2023-03-07T06:38:16.246Z,6.03
2023-03-07T06:40:55.214Z,8.30
2023-03-07T06:43:25.996Z,6.50
2023-03-07T06:45:56.648Z,6.43
2023-03-07T06:48:27.010Z,5.03
2023-03-07T06:51:09.404Z,7.57
2023-03-07T06:53:40.447Z,5.33
2023-03-07T06:56:11.646Z,7.13
2023-03-07T06:58:47.020Z,6.30
2023-03-07T07:01:22.363Z,6.27
2023-03-07T07:03:53.172Z,6.50
2023-03-07T07:06:28.838Z,6.27
2023-03-07T07:08:59.343Z,6.33
2023-03-07T07:11:29.781Z,7.37
2023-03-07T07:14:00.076Z,7.03
2023-03-07T07:16:33.242Z,7.70
2023-03-07T07:19:03.961Z,7.50
2023-03-07T07:21:34.821Z,8.43
2023-03-07T07:24:10.722Z,5.73
2023-03-07T07:26:41.544Z,6.50
2023-03-07T07:29:11.651Z,7.53
2023-03-07T07:31:48.989Z,7.40
2023-03-07T07:34:19.590Z,7.90
2023-03-07T07:36:51.531Z,8.23
2023-03-07T07:39:28.617Z,7.83
2023-03-07T07:41:59.353Z,6.47
2023-03-07T07:44:30.472Z,9.40
2023-03-07T07:47:00.898Z,7.17
2023-03-07T07:49:32.109Z,7.80
2023-03-07T07:52:02.725Z,7.60
2023-03-07T07:54:33.687Z,9.37
2023-03-07T07:57:05.865Z,7.60
2023-03-07T07:59:37.633Z,8.37
2023-03-07T08:02:13.027Z,8.50
2023-03-07T08:04:49.035Z,8.23
2023-03-07T08:07:20.179Z,7.63
2023-03-07T08:09:51.271Z,8.00
2023-03-07T08:12:27.977Z,8.37
2023-03-07T08:14:58.369Z,9.93
2023-03-07T08:17:29.493Z,8.40
2023-03-07T08:20:04.005Z,8.50
2023-03-07T08:22:37.500Z,8.20
2023-03-07T08:25:16.651Z,8.20
2023-03-07T08:27:54.245Z,8.90
2023-03-07T08:30:26.937Z,7.37
2023-03-07T08:32:58.051Z,8.83
2023-03-07T08:35:33.202Z,8.70
2023-03-07T08:38:04.407Z,7.20
2023-03-07T08:40:34.934Z,10.10
2023-03-07T08:43:05.604Z,11.33
2023-03-07T08:45:39.429Z,8.70
2023-03-07T08:48:10.444Z,10.73
2023-03-07T08:50:41.382Z,14.90
2023-03-07T08:53:15.104Z,9.27
2023-03-07T08:55:46.402Z,9.80
2023-03-07T08:58:16.948Z,9.20
2023-03-07T09:00:52.194Z,10.20
2023-03-07T09:03:22.382Z,11.80
2023-03-07T09:05:53.051Z,7.03
2023-03-07T09:08:23.545Z,9.23
2023-03-07T09:10:54.192Z,7.77
2023-03-07T09:13:24.725Z,8.80
2023-03-07T09:15:55.351Z,9.30
2023-03-07T09:18:31.656Z,9.53
2023-03-07T09:21:03.577Z,8.60
2023-03-07T09:23:33.806Z,8.07
2023-03-07T09:26:07.281Z,11.97
2023-03-07T09:28:38.405Z,10.60
2023-03-07T09:31:11.245Z,10.60
2023-03-07T09:33:44.205Z,11.00
2023-03-07T09:36:17.432Z,9.40
2023-03-07T09:38:47.838Z,9.87
2023-03-07T09:41:56.882Z,9.20
2023-03-07T09:44:27.234Z,9.43
2023-03-07T09:47:13.374Z,8.40
2023-03-07T09:49:46.482Z,8.20
2023-03-07T09:52:20.359Z,8.97
2023-03-07T09:54:59.325Z,8.80
2023-03-07T09:57:33.033Z,8.60
2023-03-07T10:00:36.052Z,6.40
2023-03-07T10:03:25.233Z,6.40
2023-03-07T10:06:00.007Z,7.60
2023-03-07T10:08:33.688Z,7.10
2023-03-07T10:11:35.075Z,7.73
2023-03-07T10:14:12.313Z,5.80
2023-03-07T10:17:21.144Z,8.10
2023-03-07T10:20:07.815Z,8.33
2023-03-07T10:23:17.975Z,7.67
2023-03-07T10:25:53.635Z,8.00
2023-03-07T10:28:26.828Z,6.80
2023-03-07T10:31:22.339Z,6.67
2023-03-07T10:33:53.886Z,7.40
2023-03-07T10:36:39.473Z,6.80
2023-03-07T10:39:26.048Z,6.53
2023-03-07T10:41:56.816Z,7.07
2023-03-07T10:44:31.100Z,5.80
2023-03-07T10:47:01.795Z,6.57
2023-03-07T10:49:37.284Z,5.57
2023-03-07T10:52:28.848Z,6.70
2023-03-07T10:55:33.314Z,5.97
2023-03-07T10:58:24.421Z,4.77
2023-03-07T11:01:02.969Z,5.83
2023-03-07T11:03:54.243Z,4.67
2023-03-07T11:06:36.596Z,6.37
2023-03-07T11:09:10.390Z,6.03
2023-03-07T11:11:49.102Z,6.27
2023-03-07T11:14:21.189Z,5.50
2023-03-07T11:16:57.125Z,5.40
2023-03-07T11:19:36.597Z,5.80
2023-03-07T11:22:20.940Z,4.87
2023-03-07T11:24:53.574Z,5.40
2023-03-07T11:27:31.604Z,4.83
2023-03-07T11:30:11.943Z,4.80
2023-03-07T11:33:18.719Z,3.80
2023-03-07T11:35:59.213Z,4.93
2023-03-07T11:38:45.112Z,5.33
2023-03-07T11:41:16.830Z,4.43
2023-03-07T11:44:12.182Z,3.67
2023-03-07T11:46:43.705Z,3.93
2023-03-07T11:49:21.979Z,3.40
2023-03-07T11:51:48.108Z,4.30
2023-03-07T11:54:44.808Z,3.97
2023-03-07T11:57:31.434Z,4.17
2023-03-07T12:00:29.909Z,4.57
2023-03-07T12:03:08.077Z,5.70
2023-03-07T12:05:49.392Z,4.80
2023-03-07T12:08:26.871Z,4.40
2023-03-07T12:11:03.586Z,4.63
2023-03-07T12:13:53.905Z,4.80
2023-03-07T12:16:41.738Z,1.30
2023-03-07T12:19:07.771Z,0.90
2023-03-07T12:22:04.697Z,0.80
2023-03-07T12:24:37.498Z,0.70
2023-03-07T12:27:09.953Z,0.70
2023-03-07T12:29:40.271Z,0.80
2023-03-07T12:32:15.275Z,0.80
2023-03-07T12:35:19.981Z,0.70
2023-03-07T12:37:56.235Z,1.10
2023-03-07T12:40:34.521Z,0.80
2023-03-07T12:43:15.981Z,0.80
2023-03-07T12:46:08.751Z,1.83
2023-03-07T12:48:39.686Z,1.10
2023-03-07T12:51:11.398Z,2.00
2023-03-07T12:53:43.730Z,2.03
2023-03-07T12:56:14.990Z,1.23
2023-03-07T12:59:00.273Z,1.23
2023-03-07T13:01:53.648Z,0.80
2023-03-07T13:04:22.847Z,1.10
2023-03-07T13:06:49.261Z,0.90
2023-03-07T13:09:25.514Z,1.00
2023-03-07T13:12:09.356Z,0.87
2023-03-07T13:14:53.998Z,0.80
2023-03-07T13:17:26.119Z,0.80
2023-03-07T13:19:54.510Z,0.80
2023-03-07T13:22:20.693Z,5.43
2023-03-07T13:24:48.076Z,0.97
2023-03-07T13:27:24.525Z,0.90
2023-03-07T13:30:16.272Z,0.90
2023-03-07T13:32:51.357Z,1.83
2023-03-07T13:35:23.502Z,0.93
2023-03-07T13:38:02.851Z,0.80
2023-03-07T13:40:34.891Z,2.90
2023-03-07T13:43:02.996Z,3.60
2023-03-07T13:45:38.261Z,2.20
2023-03-07T13:48:08.054Z,0.80
2023-03-07T13:50:34.072Z,0.80
2023-03-07T13:53:20.212Z,0.97
2023-03-07T13:55:50.223Z,1.80
2023-03-07T13:58:38.704Z,0.90
2023-03-07T14:01:34.204Z,0.90
2023-03-07T14:04:26.622Z,3.13
2023-03-07T14:06:59.168Z,0.80
2023-03-07T14:09:30.868Z,0.83
2023-03-07T14:12:08.683Z,0.80
2023-03-07T14:14:37.494Z,0.93
2023-03-07T14:17:14.597Z,0.90
2023-03-07T14:20:08.966Z,1.00
2023-03-07T14:22:46.285Z,1.13
2023-03-07T14:25:24.604Z,1.83
2023-03-07T14:27:59.740Z,0.87
2023-03-07T14:30:31.090Z,0.80
2023-03-07T14:32:58.047Z,0.80
2023-03-07T14:35:41.138Z,0.80
2023-03-07T14:38:14.443Z,0.80
2023-03-07T14:41:00.551Z,0.90
2023-03-07T14:43:32.485Z,0.80
2023-03-07T14:46:13.034Z,1.37
2023-03-07T14:48:54.513Z,0.80
2023-03-07T14:51:23.444Z,1.10
2023-03-07T14:53:49.758Z,1.00
2023-03-07T14:56:31.514Z,1.33
2023-03-07T14:59:00.080Z,0.90
2023-03-07T15:01:31.234Z,0.80
2023-03-07T15:03:57.452Z,1.17
2023-03-07T15:06:26.056Z,1.00
2023-03-07T15:08:55.529Z,0.80
2023-03-07T15:11:40.490Z,2.17
2023-03-07T15:14:14.382Z,1.17
2023-03-07T15:16:48.679Z,1.00
2023-03-07T15:19:32.634Z,0.83
2023-03-07T15:22:01.034Z,0.90
2023-03-07T15:24:37.786Z,1.07
2023-03-07T15:27:06.019Z,1.17
2023-03-07T15:29:32.513Z,1.70
2023-03-07T15:31:59.735Z,6.63
2023-03-07T15:34:58.260Z,1.43
2023-03-07T15:37:26.825Z,1.43
2023-03-07T15:39:58.966Z,1.27
2023-03-07T15:42:25.202Z,1.10
2023-03-07T15:44:59.155Z,1.97
2023-03-07T15:47:27.181Z,2.00
2023-03-07T15:49:58.646Z,1.50
2023-03-07T15:52:34.067Z,1.83
2023-03-07T15:55:04.563Z,2.80
2023-03-07T15:57:33.822Z,1.57
2023-03-07T16:00:01.397Z,2.53
2023-03-07T16:02:30.533Z,2.03
2023-03-07T16:05:01.066Z,2.63
2023-03-07T16:07:27.164Z,2.37
2023-03-07T16:09:53.384Z,2.00
2023-03-07T16:12:21.719Z,1.70
2023-03-07T16:14:48.745Z,1.47
2023-03-07T16:17:33.980Z,2.30
2023-03-07T16:20:00.126Z,4.47
2023-03-07T16:22:26.516Z,1.87
2023-03-07T16:24:52.610Z,2.10
2023-03-07T16:27:20.944Z,2.40
2023-03-07T16:29:47.427Z,1.80
2023-03-07T16:32:16.908Z,2.10
2023-03-07T16:34:44.514Z,2.23
2023-03-07T16:37:10.782Z,1.90
2023-03-07T16:39:37.322Z,2.03
2023-03-07T16:42:03.926Z,2.27
2023-03-07T16:44:30.137Z,2.00
2023-03-07T16:47:08.691Z,1.97
2023-03-07T16:49:35.333Z,1.90
2023-03-07T16:52:06.159Z,2.23
2023-03-07T16:54:33.238Z,2.67
2023-03-07T16:57:00.298Z,2.53
2023-03-07T16:59:33.885Z,4.70
2023-03-07T17:02:00.438Z,2.80
2023-03-07T17:04:26.912Z,3.90
2023-03-07T17:07:04.050Z,3.83
2023-03-07T17:09:31.294Z,2.83
2023-03-07T17:11:57.615Z,3.67
2023-03-07T17:14:23.736Z,3.83
2023-03-07T17:16:49.971Z,3.90
2023-03-07T17:19:23.621Z,5.80
2023-03-07T17:21:49.716Z,5.73
2023-03-07T17:24:15.813Z,6.57
2023-03-07T17:26:43.172Z,8.30
2023-03-07T17:29:19.909Z,12.37
2023-03-07T17:31:45.976Z,12.50
2023-03-07T17:34:26.248Z,17.50
2023-03-07T17:36:52.582Z,12.67
2023-03-07T17:39:19.745Z,11.70
2023-03-07T17:41:46.031Z,11.00
2023-03-07T17:44:12.436Z,8.87
2023-03-07T17:46:38.565Z,10.37
2023-03-07T17:49:04.696Z,10.63
2023-03-07T17:51:30.764Z,10.10
2023-03-07T17:53:57.494Z,10.30
2023-03-07T17:56:24.734Z,10.30
2023-03-07T17:58:51.522Z,13.40
2023-03-07T18:01:17.771Z,13.10
2023-03-07T18:03:43.960Z,10.80
2023-03-07T18:06:10.370Z,11.97
2023-03-07T18:08:36.885Z,10.60
2023-03-07T18:11:08.396Z,10.33
2023-03-07T18:13:34.945Z,9.73
2023-03-07T18:16:01.483Z,9.33
2023-03-07T18:18:32.474Z,9.23
2023-03-07T18:21:04.264Z,8.73
2023-03-07T18:23:31.105Z,9.97
2023-03-07T18:25:58.749Z,8.30
2023-03-07T18:28:25.949Z,9.03
2023-03-07T18:31:03.995Z,10.20
2023-03-07T18:33:30.994Z,9.73
2023-03-07T18:35:57.321Z,8.30
2023-03-07T18:38:24.645Z,8.93
2023-03-07T18:41:00.337Z,9.73
2023-03-07T18:43:26.766Z,9.60
2023-03-07T18:45:52.815Z,10.47
2023-03-07T18:48:18.882Z,10.90
2023-03-07T18:50:54.904Z,12.40
2023-03-07T18:53:21.092Z,11.00
2023-03-07T18:55:47.188Z,12.20
2023-03-07T18:58:15.409Z,12.50
2023-03-07T19:00:42.560Z,12.40
2023-03-07T19:03:08.723Z,11.10
2023-03-07T19:05:41.740Z,12.60
2023-03-07T19:08:07.860Z,11.00
2023-03-07T19:10:35.117Z,12.77
2023-03-07T19:13:01.357Z,12.93
2023-03-07T19:15:27.545Z,14.77
2023-03-07T19:17:53.627Z,13.07
2023-03-07T19:20:19.740Z,12.70
2023-03-07T19:22:45.785Z,12.33
2023-03-07T19:25:11.835Z,11.70
2023-03-07T19:27:38.107Z,12.43
2023-03-07T19:30:05.335Z,12.60
2023-03-07T19:32:31.538Z,11.77
2023-03-07T19:34:57.702Z,14.10
2023-03-07T19:37:23.834Z,12.97
2023-03-07T19:39:52.815Z,12.77
2023-03-07T19:42:19.927Z,14.97
2023-03-07T19:44:46.139Z,13.17
2023-03-07T19:47:12.516Z,13.33
2023-03-07T19:49:38.685Z,12.93
2023-03-07T19:52:04.925Z,12.97
2023-03-07T19:54:31.237Z,12.03
2023-03-07T19:56:57.393Z,12.40
2023-03-07T19:59:23.525Z,16.40
2023-03-07T20:01:49.705Z,25.20
2023-03-07T20:04:15.999Z,12.90
2023-03-07T20:06:43.436Z,13.70
2023-03-07T20:09:13.355Z,14.03
2023-03-07T20:11:42.508Z,13.70
2023-03-07T20:14:09.524Z,11.93
2023-03-07T20:16:37.034Z,17.47
2023-03-07T20:19:05.782Z,15.53
2023-03-07T20:21:32.963Z,12.33
2023-03-07T20:23:59.550Z,11.90
2023-03-07T20:26:34.086Z,12.60
2023-03-07T20:29:01.979Z,14.67
2023-03-07T20:31:28.695Z,10.73
2023-03-07T20:33:59.644Z,6.50
2023-03-07T20:36:28.283Z,4.03
2023-03-07T20:38:56.833Z,2.77
2023-03-07T20:41:28.395Z,2.87
2023-03-07T20:43:58.381Z,2.00
2023-03-07T20:46:24.659Z,2.10
2023-03-07T20:48:53.857Z,1.87
2023-03-07T20:51:22.625Z,1.93
2023-03-07T20:53:54.678Z,1.50
2023-03-07T20:56:21.424Z,1.47
2023-03-07T20:58:47.544Z,1.60
2023-03-07T21:01:17.859Z,1.70
2023-03-07T21:03:44.634Z,1.57
2023-03-07T21:06:10.849Z,1.27
2023-03-07T21:08:37.596Z,1.50
2023-03-07T21:11:12.183Z,1.70
2023-03-07T21:13:40.321Z,1.40
2023-03-07T21:16:17.867Z,1.80
2023-03-07T21:18:44.220Z,1.80
2023-03-07T21:21:12.673Z,1.97
2023-03-07T21:23:39.522Z,2.00
2023-03-07T21:26:11.139Z,2.67
2023-03-07T21:28:37.666Z,2.73
2023-03-07T21:31:06.238Z,5.23
2023-03-07T21:33:33.020Z,2.97
2023-03-07T21:35:59.231Z,3.27
2023-03-07T21:38:25.387Z,2.00
2023-03-07T21:40:53.251Z,2.50
2023-03-07T21:43:19.710Z,1.90
2023-03-07T21:45:45.807Z,2.53
2023-03-07T21:48:12.193Z,2.40
2023-03-07T21:50:44.442Z,2.60
2023-03-07T21:53:10.923Z,2.50
2023-03-07T21:55:37.053Z,2.13
2023-03-07T21:58:04.085Z,2.70
2023-03-07T22:00:30.736Z,2.70
2023-03-07T22:02:57.724Z,2.77
2023-03-07T22:05:24.405Z,6.80
2023-03-07T22:07:50.857Z,5.37
2023-03-07T22:10:17.812Z,2.83
2023-03-07T22:12:44.019Z,12.23
2023-03-07T22:15:10.438Z,4.87
2023-03-07T22:17:36.543Z,3.50
2023-03-07T22:20:04.032Z,6.93
2023-03-07T22:22:30.144Z,9.13
2023-03-07T22:24:56.233Z,11.80
2023-03-07T22:27:22.324Z,9.20
2023-03-07T22:29:48.391Z,4.47
2023-03-07T22:32:14.491Z,2.80
2023-03-07T22:34:40.623Z,2.57
2023-03-07T22:37:06.706Z,2.67
2023-03-07T22:39:32.803Z,3.60
2023-03-07T22:41:58.901Z,4.63
2023-03-07T22:44:24.942Z,3.43
2023-03-07T22:46:51.177Z,3.40
2023-03-07T22:49:17.252Z,2.77
2023-03-07T22:51:43.330Z,3.17
2023-03-07T22:54:09.841Z,3.90
2023-03-07T22:56:35.935Z,5.10
2023-03-07T22:59:04.280Z,5.90
2023-03-07T23:01:30.979Z,5.50
2023-03-07T23:03:58.477Z,5.20
2023-03-07T23:06:27.464Z,5.50
2023-03-07T23:08:53.704Z,5.20
2023-03-07T23:11:21.433Z,5.80
2023-03-07T23:13:47.536Z,5.57
2023-03-07T23:16:18.930Z,5.70
2023-03-07T23:18:45.875Z,5.47
2023-03-07T23:21:14.914Z,5.73
2023-03-07T23:23:41.234Z,5.33
2023-03-07T23:26:08.591Z,5.97
2023-03-07T23:28:34.875Z,6.03
2023-03-07T23:31:00.995Z,6.10
2023-03-07T23:33:27.155Z,5.60
2023-03-07T23:35:53.318Z,5.90
2023-03-07T23:38:19.411Z,6.40
2023-03-07T23:40:45.467Z,6.87
2023-03-07T23:43:12.660Z,5.93
2023-03-07T23:45:39.017Z,5.23
2023-03-07T23:48:05.360Z,5.13
2023-03-07T23:50:31.792Z,5.50
2023-03-07T23:52:57.886Z,5.53
2023-03-07T23:55:23.927Z,4.50
2023-03-07T23:57:50.039Z,3.20
